Pedro Juan Caballero, Paraguay

7:53 PM PYT en Septiembre 19, 2014 (GMT -0400)
Ponta Pora International | Change Station
CLOSE
Current Station
Aeropuerto
Location: Ponta Pora International,
Altura: 2156 ft
Estaciones meteorológicas cercanas

Alt 2156 ft 22.55 °S, 55.70 °W | Updated 1 hour ago

Light Thunderstorms and Rain
Tormenta débil
68 ° F
Sensación térmica 68 ° F
N
10
Viento Variable Viento desde Norte

Hoy
Alta -- | Baja -- ° F
--% Posibilidad de precipitaciones
Ayer
Alta -- | Baja -- ° F
Precip. -- pul
5:35 AM 5:38 PM
Creciente menguante, 16% visible
Presión 29.89 pul
Visibilidad 0.6 Millas
Nubes Muy nublado 300 ft
Baja 2500 ft
Nublado 7000 ft
Punto de rocío 66 ° F
Humedad 94%
Precipitaciones 0.00 pul
Espesor de la nieve No disponible.
UV 0 de una escala de 12
Polen No disponible.
Calidad del aire No disponible.
Flu Activity No disponible.
METAR SBPP 192200Z 01009KT 1000 -TSRA BR BKN003 FEW025CB OVC070 20/19 Q1012

More Conditions Fewer Conditions

Presión 29.89 pul
Visibilidad 0.6 Millas
Nubes Muy nublado 300 ft
Baja 2500 ft
Nublado 7000 ft
Punto de rocío 66 ° F
Humedad 94%
Precipitaciones 0.00 pul
Espesor de la nieve No disponible.
UV 0 de una escala de 12
Polen No disponible.
Calidad del aire No disponible.
Flu Activity No disponible.
METAR SBPP 192200Z 01009KT 1000 -TSRA BR BKN003 FEW025CB OVC070 20/19 Q1012

More Conditions Fewer Conditions

10-Day Weather Forecast

Almanac

Astronomía

Sep. 19, 2014 Salida Puesta
Hora real 5:35 AM PYT 5:38 PM PYT
Crepúsculo civil 5:13 AM PYT 6:00 PM PYT
Crepúsculo náutico 4:47 AM PYT 6:26 PM PYT
Crepúsculo astronómico 4:21 AM PYT 6:52 PM PYT
Luna 2:26 AM PYT 1:58 PM PYT
Horas de luz 12h 47m
Horas de luz
12h 02m
Tomorrow will be 1m 18s longer.
Creciente menguante, 16% of the Moon is Illuminated
Hoy
Creciente menguante
Sep 24
Nueva
Oct 1
Cuarto creciente
Oct 8
Luna llena
Oct 15
Cuarto menguante

Extremos de hoy

Máximos del país Bajas del país

Community

WunderPhotos

Upload Photos

1,754,730 ¡fotos cargadas!

Nearby

Calidad del aire

Not available.

Grosos de nieve

Not available.

Actividad de terremotos

Ciudad Distance Mag. Tiempo y dato
No hay informes recientes de la actividad sísmica.
Magnitud mínima muestra es 2,5.

Temperaturas de aguas costeras

Lugar Temperatura
Sin partes meteorológicos de las estaciones

Estaciones meteorológicas cercanas